Time;durP1;ratioP1;P1;durP2;ratioP2;P2;SDS_P1;SDS_P2;PMS_P1;PMS_P2;Temp;Humidity;BMP_temperature;BMP_pressure;BME280_temperature;BME280_humidity;BME280_pressure;Samples;Min_cycle;Max_cycle;Signal;HPM_P1;HPM_P2
2022/12/29 00:01:21;;;;;;;8.23;6.15;;;;;;;;;;5097061;28;20050;-66
2022/12/29 00:03:47;;;;;;;7.70;6.20;;;;;;;;;;5098069;28;20081;-66
2022/12/29 00:06:13;;;;;;;9.25;6.65;;;;;;;;;;5098458;28;20040;-66
2022/12/29 00:08:40;;;;;;;9.35;7.28;;;;;;;;;;5100389;28;20044;-66
2022/12/29 00:11:07;;;;;;;10.02;7.38;;;;;;;;;;5097481;28;20134;-66
2022/12/29 00:16:18;;;;;;;8.98;6.90;;;;;;;;;;5096083;28;20236;-66
2022/12/29 00:18:45;;;;;;;10.52;7.00;;;;;;;;;;5098501;28;20047;-66
2022/12/29 00:35:08;;;;;;;10.45;7.13;;;;;;;;;;5077146;28;20044;-66
2022/12/29 00:45:58;;;;;;;8.52;6.95;;;;;;;;;;5094553;28;20048;-67
2022/12/29 00:51:09;;;;;;;10.52;7.28;;;;;;;;;;5097251;28;20043;-67
2022/12/29 00:53:35;;;;;;;9.13;7.68;;;;;;;;;;5076348;28;20083;-67
2022/12/29 00:56:01;;;;;;;10.55;8.13;;;;;;;;;;5077394;28;20039;-67
2022/12/29 00:58:28;;;;;;;11.27;6.35;;;;;;;;;;5075711;28;20052;-66
2022/12/29 01:01:01;;;;;;;8.98;7.05;;;;;;;;;;5094182;28;20050;-67
2022/12/29 01:03:28;;;;;;;8.85;6.55;;;;;;;;;;5095214;28;20043;-66
2022/12/29 01:05:54;;;;;;;11.00;6.60;;;;;;;;;;5076744;28;20043;-67
2022/12/29 01:08:20;;;;;;;7.10;5.60;;;;;;;;;;5095312;28;20380;-66
2022/12/29 01:10:46;;;;;;;10.60;6.53;;;;;;;;;;5095330;28;20666;-67
2022/12/29 01:13:12;;;;;;;12.88;6.30;;;;;;;;;;5093441;28;20126;-67
2022/12/29 01:15:38;;;;;;;13.20;5.63;;;;;;;;;;5092909;28;20032;-67
2022/12/29 01:18:04;;;;;;;10.00;5.70;;;;;;;;;;5096310;28;20042;-67
2022/12/29 01:20:31;;;;;;;9.43;6.05;;;;;;;;;;5095240;28;20042;-67
2022/12/29 01:22:57;;;;;;;8.98;6.22;;;;;;;;;;5096125;28;20052;-67
2022/12/29 01:25:23;;;;;;;8.98;6.28;;;;;;;;;;5076583;28;20503;-66
2022/12/29 01:27:49;;;;;;;9.48;6.63;;;;;;;;;;5093017;28;20689;-66
2022/12/29 01:30:15;;;;;;;7.97;5.95;;;;;;;;;;5096517;28;20062;-66
2022/12/29 01:32:41;;;;;;;9.48;6.38;;;;;;;;;;5092303;28;20078;-68
2022/12/29 01:35:07;;;;;;;8.77;6.07;;;;;;;;;;5095442;28;20743;-66
2022/12/29 01:37:34;;;;;;;9.63;6.55;;;;;;;;;;5077431;28;20079;-66
2022/12/29 01:40:00;;;;;;;8.80;6.63;;;;;;;;;;5079897;28;20475;-66
2022/12/29 01:42:26;;;;;;;12.35;7.03;;;;;;;;;;5075407;28;20564;-65
2022/12/29 01:44:56;;;;;;;10.38;7.10;;;;;;;;;;5097126;28;20043;-66
2022/12/29 01:47:36;;;;;;;10.23;7.40;;;;;;;;;;5096623;28;20031;-66
2022/12/29 01:50:06;;;;;;;12.35;8.18;;;;;;;;;;5094817;28;20044;-66
2022/12/29 01:52:34;;;;;;;15.30;9.82;;;;;;;;;;5094939;28;20040;-66
2022/12/29 01:55:02;;;;;;;11.82;8.73;;;;;;;;;;5091612;28;20724;-66
2022/12/29 01:57:30;;;;;;;13.15;8.68;;;;;;;;;;5094303;28;20059;-66
2022/12/29 01:59:59;;;;;;;13.07;9.48;;;;;;;;;;5096059;28;20144;-66
2022/12/29 02:02:25;;;;;;;14.25;9.93;;;;;;;;;;5096717;28;20140;-66
2022/12/29 02:04:52;;;;;;;15.38;11.05;;;;;;;;;;5077736;28;20052;-66
2022/12/29 02:07:20;;;;;;;15.80;10.85;;;;;;;;;;5096917;28;20410;-66
2022/12/29 02:09:48;;;;;;;12.32;9.02;;;;;;;;;;5094074;28;20444;-66
2022/12/29 02:12:14;;;;;;;12.35;9.40;;;;;;;;;;5093548;28;20428;-66
2022/12/29 02:14:41;;;;;;;11.65;7.15;;;;;;;;;;5093637;28;20518;-66
2022/12/29 02:17:14;;;;;;;13.20;7.70;;;;;;;;;;5095358;28;20092;-67
2022/12/29 02:19:40;;;;;;;14.02;5.75;;;;;;;;;;5095031;28;20126;-67
2022/12/29 02:22:12;;;;;;;9.18;2.65;;;;;;;;;;5094415;28;20210;-66
2022/12/29 02:24:48;;;;;;;2.65;0.93;;;;;;;;;;5091109;28;20048;-66
2022/12/29 02:27:29;;;;;;;2.00;0.93;;;;;;;;;;5093777;28;20062;-65
2022/12/29 02:30:03;;;;;;;2.08;0.80;;;;;;;;;;5095139;28;20035;-65
2022/12/29 02:32:29;;;;;;;;;;;;;;;;;;5093080;28;20047;-65
2022/12/29 02:35:05;;;;;;;1.92;0.47;;;;;;;;;;5092197;28;20531;-66
2022/12/29 02:37:38;;;;;;;2.58;0.60;;;;;;;;;;5076080;28;20358;-66
2022/12/29 02:40:15;;;;;;;2.33;0.60;;;;;;;;;;5094287;28;20054;-66
2022/12/29 02:42:47;;;;;;;3.78;0.60;;;;;;;;;;5094969;28;20043;-66
2022/12/29 02:45:18;;;;;;;3.50;1.05;;;;;;;;;;5097426;28;20048;-67
2022/12/29 02:47:45;;;;;;;1.95;0.85;;;;;;;;;;5079357;28;20047;-67
2022/12/29 02:50:16;;;;;;;3.15;1.35;;;;;;;;;;5097261;28;20054;-67
2022/12/29 02:52:47;;;;;;;3.72;1.23;;;;;;;;;;5099946;28;20043;-67
2022/12/29 02:55:13;;;;;;;5.63;1.08;;;;;;;;;;5099765;28;20184;-67
2022/12/29 02:57:39;;;;;;;3.40;1.15;;;;;;;;;;5098805;28;20050;-67
2022/12/29 03:00:07;;;;;;;3.50;1.45;;;;;;;;;;5101660;28;20893;-67
2022/12/29 03:02:40;;;;;;;6.25;2.20;;;;;;;;;;5097728;28;20373;-67
2022/12/29 03:05:07;;;;;;;6.07;3.25;;;;;;;;;;5101624;28;20044;-67
2022/12/29 03:07:33;;;;;;;6.82;3.92;;;;;;;;;;5081488;28;20047;-68
2022/12/29 03:10:05;;;;;;;9.73;4.32;;;;;;;;;;5097437;28;20040;-67
2022/12/29 03:18:14;;;;;;;8.35;5.43;;;;;;;;;;5078649;28;20403;-67
2022/12/29 03:20:51;;;;;;;9.50;5.47;;;;;;;;;;5099569;28;20039;-67
2022/12/29 03:23:18;;;;;;;13.75;4.95;;;;;;;;;;5099179;28;20070;-67
2022/12/29 03:25:46;;;;;;;6.60;3.75;;;;;;;;;;5097902;28;20036;-68
2022/12/29 03:28:14;;;;;;;13.40;4.75;;;;;;;;;;5095904;28;20067;-67
2022/12/29 03:30:42;;;;;;;14.93;4.13;;;;;;;;;;5061771;28;20047;-67
2022/12/29 03:33:10;;;;;;;10.07;3.05;;;;;;;;;;5100907;28;20074;-67
2022/12/29 03:35:38;;;;;;;13.23;3.60;;;;;;;;;;5098107;28;20043;-68
2022/12/29 03:38:04;;;;;;;13.77;3.70;;;;;;;;;;5079925;28;20460;-68
2022/12/29 03:40:31;;;;;;;10.90;3.45;;;;;;;;;;5096609;28;20035;-68
2022/12/29 03:42:58;;;;;;;9.52;3.42;;;;;;;;;;5096856;28;21240;-67
2022/12/29 03:45:24;;;;;;;11.68;3.13;;;;;;;;;;5098228;28;20126;-68
2022/12/29 03:47:51;;;;;;;12.57;3.05;;;;;;;;;;5098760;28;20040;-68
2022/12/29 03:50:17;;;;;;;8.52;2.10;;;;;;;;;;5077808;28;20046;-68
2022/12/29 03:52:43;;;;;;;11.00;3.13;;;;;;;;;;5099548;28;20078;-68
2022/12/29 03:55:09;;;;;;;10.00;3.20;;;;;;;;;;5078632;28;20111;-68
2022/12/29 03:57:35;;;;;;;8.75;2.38;;;;;;;;;;5075892;28;20043;-68
2022/12/29 04:00:02;;;;;;;13.15;2.75;;;;;;;;;;5097572;28;20032;-68
2022/12/29 04:02:28;;;;;;;9.43;2.38;;;;;;;;;;5098328;28;20044;-68
2022/12/29 04:04:54;;;;;;;10.70;2.67;;;;;;;;;;5095892;28;20055;-67
2022/12/29 04:07:20;;;;;;;9.45;2.60;;;;;;;;;;5080117;28;20052;-68
2022/12/29 04:09:46;;;;;;;13.95;2.45;;;;;;;;;;5096659;28;20039;-68
2022/12/29 04:12:14;;;;;;;6.15;2.20;;;;;;;;;;5098816;28;20055;-68
2022/12/29 04:14:40;;;;;;;8.02;2.40;;;;;;;;;;5073972;28;20174;-68
2022/12/29 04:17:07;;;;;;;5.35;2.25;;;;;;;;;;5097231;28;20147;-68
2022/12/29 04:19:33;;;;;;;9.45;2.28;;;;;;;;;;5092182;28;20047;-68
2022/12/29 04:21:59;;;;;;;10.63;2.30;;;;;;;;;;5097004;28;20056;-68
2022/12/29 04:24:25;;;;;;;10.32;1.77;;;;;;;;;;5078125;28;20075;-68
2022/12/29 04:26:51;;;;;;;10.57;2.00;;;;;;;;;;5074499;28;20040;-68
2022/12/29 04:29:17;;;;;;;9.80;1.90;;;;;;;;;;5077459;28;20044;-68
2022/12/29 04:31:44;;;;;;;16.25;2.03;;;;;;;;;;5095324;28;20384;-68
2022/12/29 04:34:10;;;;;;;16.75;2.17;;;;;;;;;;5096479;28;20039;-68
2022/12/29 04:36:36;;;;;;;12.13;2.33;;;;;;;;;;5095274;28;20143;-68
2022/12/29 04:39:04;;;;;;;19.65;2.90;;;;;;;;;;5074795;28;20160;-68
2022/12/29 04:41:31;;;;;;;13.80;3.10;;;;;;;;;;5098202;28;20047;-68
2022/12/29 04:43:57;;;;;;;21.42;2.50;;;;;;;;;;5091609;28;20047;-68
2022/12/29 04:46:23;;;;;;;15.80;2.97;;;;;;;;;;5073896;28;20046;-68
2022/12/29 04:48:49;;;;;;;15.85;2.90;;;;;;;;;;5097310;28;20146;-68
2022/12/29 04:51:15;;;;;;;27.92;3.67;;;;;;;;;;5077693;28;20055;-68
2022/12/29 04:53:42;;;;;;;33.97;5.32;;;;;;;;;;5095371;28;20031;-68
2022/12/29 04:56:08;;;;;;;23.50;3.20;;;;;;;;;;5084378;28;20063;-68
2022/12/29 04:58:35;;;;;;;21.23;3.58;;;;;;;;;;5101277;28;20058;-68
2022/12/29 05:01:01;;;;;;;24.40;3.63;;;;;;;;;;5093985;28;20028;-68
2022/12/29 05:03:27;;;;;;;28.92;3.83;;;;;;;;;;5077662;28;20059;-68
2022/12/29 05:05:55;;;;;;;39.25;4.53;;;;;;;;;;5075732;28;20047;-68
2022/12/29 05:08:21;;;;;;;24.83;3.28;;;;;;;;;;5093666;28;20036;-68
2022/12/29 05:10:47;;;;;;;25.42;4.43;;;;;;;;;;5096473;28;20048;-68
2022/12/29 05:13:13;;;;;;;27.85;5.35;;;;;;;;;;5095191;28;20123;-68
2022/12/29 05:15:39;;;;;;;33.45;4.15;;;;;;;;;;5094311;28;20039;-68
2022/12/29 05:18:06;;;;;;;30.15;3.78;;;;;;;;;;5098451;28;20047;-68
2022/12/29 05:20:32;;;;;;;28.80;4.57;;;;;;;;;;5096757;28;20130;-68
2022/12/29 05:22:58;;;;;;;35.47;5.90;;;;;;;;;;5096169;28;20079;-68
2022/12/29 05:25:24;;;;;;;25.42;4.00;;;;;;;;;;5079903;28;20052;-68
2022/12/29 05:27:50;;;;;;;28.27;4.03;;;;;;;;;;5076491;28;20498;-68
2022/12/29 05:30:16;;;;;;;30.70;4.28;;;;;;;;;;5095377;28;20043;-68
2022/12/29 05:32:42;;;;;;;28.73;4.22;;;;;;;;;;5093903;28;20039;-68
2022/12/29 05:35:09;;;;;;;23.20;4.50;;;;;;;;;;5094982;28;20069;-68
2022/12/29 05:37:35;;;;;;;28.20;4.15;;;;;;;;;;5091658;28;20044;-68
2022/12/29 05:40:01;;;;;;;22.02;3.28;;;;;;;;;;5089250;28;20082;-68
2022/12/29 05:42:27;;;;;;;21.00;3.78;;;;;;;;;;5095923;28;20107;-68
2022/12/29 05:44:53;;;;;;;19.35;3.70;;;;;;;;;;5091128;28;20052;-68
2022/12/29 05:47:20;;;;;;;24.08;3.42;;;;;;;;;;5093854;28;20050;-68
2022/12/29 05:49:46;;;;;;;29.10;3.50;;;;;;;;;;5095798;28;20054;-68
2022/12/29 05:52:12;;;;;;;24.70;4.45;;;;;;;;;;5099530;28;20036;-68
2022/12/29 05:54:38;;;;;;;17.23;3.33;;;;;;;;;;5095496;28;20054;-68
2022/12/29 05:57:04;;;;;;;21.40;3.42;;;;;;;;;;5076163;28;20047;-68
2022/12/29 05:59:31;;;;;;;16.98;3.55;;;;;;;;;;5096374;28;20247;-68
2022/12/29 06:01:57;;;;;;;21.77;3.35;;;;;;;;;;5077813;28;20460;-68
2022/12/29 06:04:23;;;;;;;23.38;3.88;;;;;;;;;;5092622;28;20035;-68
2022/12/29 06:06:49;;;;;;;22.17;4.40;;;;;;;;;;5078286;28;20479;-68
2022/12/29 06:09:15;;;;;;;17.88;3.35;;;;;;;;;;5095088;28;20450;-68
2022/12/29 06:11:42;;;;;;;19.92;3.60;;;;;;;;;;5095241;28;20089;-68
2022/12/29 06:14:08;;;;;;;17.88;3.20;;;;;;;;;;5093674;28;20086;-68
2022/12/29 06:16:35;;;;;;;31.55;4.72;;;;;;;;;;5097728;28;20135;-68
2022/12/29 06:19:02;;;;;;;21.88;4.20;;;;;;;;;;5078029;28;20831;-68
2022/12/29 06:21:28;;;;;;;16.40;2.60;;;;;;;;;;5103871;28;20092;-68
2022/12/29 06:23:54;;;;;;;28.77;3.97;;;;;;;;;;5100393;28;20126;-68
2022/12/29 06:26:20;;;;;;;24.27;3.70;;;;;;;;;;5097901;28;21295;-68
2022/12/29 06:28:46;;;;;;;25.05;3.70;;;;;;;;;;5100677;28;20055;-68
2022/12/29 06:31:13;;;;;;;27.38;4.53;;;;;;;;;;5078104;28;20425;-68
2022/12/29 06:33:39;;;;;;;28.48;3.88;;;;;;;;;;5083345;28;20063;-68
2022/12/29 06:36:05;;;;;;;22.17;5.20;;;;;;;;;;5085076;28;20461;-68
2022/12/29 06:38:31;;;;;;;33.15;6.10;;;;;;;;;;5084439;28;20047;-68
2022/12/29 06:40:57;;;;;;;35.97;5.03;;;;;;;;;;5100947;28;20127;-67
2022/12/29 06:43:24;;;;;;;36.30;4.88;;;;;;;;;;5103863;28;20054;-67
2022/12/29 06:45:50;;;;;;;26.50;3.60;;;;;;;;;;5080816;28;20062;-67
2022/12/29 06:48:16;;;;;;;20.77;4.07;;;;;;;;;;5081742;28;20118;-67
2022/12/29 06:50:42;;;;;;;29.17;4.75;;;;;;;;;;5082102;28;20399;-67
2022/12/29 06:53:08;;;;;;;37.63;5.15;;;;;;;;;;5080709;28;20071;-68
2022/12/29 06:55:34;;;;;;;28.27;3.92;;;;;;;;;;5080607;28;20067;-67
2022/12/29 06:58:01;;;;;;;27.25;4.47;;;;;;;;;;5100067;28;20052;-68
2022/12/29 07:00:27;;;;;;;33.03;4.65;;;;;;;;;;5099230;28;20088;-68
2022/12/29 07:02:55;;;;;;;22.42;4.63;;;;;;;;;;5100986;28;20044;-68
2022/12/29 07:05:21;;;;;;;34.80;5.80;;;;;;;;;;5105007;28;20088;-67
2022/12/29 07:07:47;;;;;;;26.48;4.40;;;;;;;;;;5099523;28;20044;-68
2022/12/29 07:10:13;;;;;;;26.73;5.30;;;;;;;;;;5066949;28;20134;-68
2022/12/29 07:12:39;;;;;;;29.48;4.97;;;;;;;;;;5102283;28;20394;-67
2022/12/29 07:15:06;;;;;;;29.77;5.22;;;;;;;;;;5102384;28;20135;-67
2022/12/29 07:17:32;;;;;;;25.65;5.68;;;;;;;;;;5102625;28;20060;-67
2022/12/29 07:19:58;;;;;;;31.00;5.00;;;;;;;;;;5084691;28;20176;-67
2022/12/29 07:22:24;;;;;;;31.77;5.15;;;;;;;;;;5087927;28;20126;-67
2022/12/29 07:24:50;;;;;;;34.13;6.82;;;;;;;;;;5105856;28;20130;-68
2022/12/29 07:27:16;;;;;;;26.08;5.28;;;;;;;;;;5103930;28;20123;-67
2022/12/29 07:29:43;;;;;;;33.28;5.93;;;;;;;;;;5100424;28;20040;-68
2022/12/29 07:32:09;;;;;;;24.30;4.75;;;;;;;;;;5079717;28;20130;-68
2022/12/29 07:34:35;;;;;;;33.92;4.60;;;;;;;;;;5082893;28;20043;-69
2022/12/29 07:37:01;;;;;;;29.33;5.25;;;;;;;;;;5102837;28;20059;-68
2022/12/29 07:39:27;;;;;;;25.55;4.45;;;;;;;;;;5085129;28;20426;-69
2022/12/29 07:41:53;;;;;;;35.30;6.90;;;;;;;;;;5106398;28;20036;-69
2022/12/29 07:44:19;;;;;;;27.63;4.75;;;;;;;;;;5084648;28;20078;-70
2022/12/29 07:46:46;;;;;;;35.35;6.30;;;;;;;;;;5107538;28;20055;-70
2022/12/29 07:49:12;;;;;;;22.70;4.97;;;;;;;;;;5088332;28;20039;-70
2022/12/29 07:51:38;;;;;;;29.60;4.55;;;;;;;;;;5108377;28;20042;-70
2022/12/29 07:54:04;;;;;;;28.85;4.28;;;;;;;;;;5085787;28;21047;-70
2022/12/29 07:56:30;;;;;;;21.15;4.07;;;;;;;;;;5106173;28;20495;-69
2022/12/29 07:58:56;;;;;;;30.27;4.28;;;;;;;;;;5105153;28;20475;-70
2022/12/29 08:01:23;;;;;;;24.63;3.38;;;;;;;;;;5087220;28;20336;-70
2022/12/29 08:03:49;;;;;;;20.83;3.35;;;;;;;;;;5106088;28;20047;-70
2022/12/29 08:06:15;;;;;;;29.15;4.22;;;;;;;;;;5107232;28;20042;-70
2022/12/29 08:08:42;;;;;;;16.55;3.05;;;;;;;;;;5089337;28;20154;-69
2022/12/29 08:11:08;;;;;;;23.98;4.00;;;;;;;;;;5100144;28;20488;-69
2022/12/29 08:13:34;;;;;;;27.65;4.07;;;;;;;;;;5104542;28;20504;-68
2022/12/29 08:16:00;;;;;;;31.48;4.63;;;;;;;;;;5085466;28;20036;-70
2022/12/29 08:18:26;;;;;;;26.00;3.65;;;;;;;;;;5079093;28;20044;-69
2022/12/29 08:20:53;;;;;;;43.53;6.13;;;;;;;;;;5079760;28;20555;-69
2022/12/29 08:23:19;;;;;;;25.48;4.28;;;;;;;;;;5096518;28;20043;-69
2022/12/29 08:25:45;;;;;;;30.00;4.68;;;;;;;;;;5078762;28;20040;-69
2022/12/29 08:28:11;;;;;;;24.63;4.75;;;;;;;;;;5086030;28;20434;-69
2022/12/29 08:30:37;;;;;;;34.40;4.63;;;;;;;;;;5080157;28;20134;-69
2022/12/29 08:33:03;;;;;;;21.10;4.70;;;;;;;;;;5102955;28;20036;-69
2022/12/29 08:35:30;;;;;;;25.33;4.65;;;;;;;;;;5096891;28;20067;-69
2022/12/29 08:37:56;;;;;;;36.85;5.30;;;;;;;;;;5103675;28;20458;-69
2022/12/29 08:40:22;;;;;;;27.90;5.50;;;;;;;;;;5086456;28;20054;-69
2022/12/29 08:42:48;;;;;;;26.63;4.85;;;;;;;;;;5103738;28;20051;-69
2022/12/29 08:45:14;;;;;;;25.73;4.35;;;;;;;;;;5086420;28;20047;-69
2022/12/29 08:47:40;;;;;;;25.25;4.82;;;;;;;;;;5104844;28;20092;-70
2022/12/29 08:50:07;;;;;;;24.50;3.55;;;;;;;;;;5098008;28;20466;-70
2022/12/29 08:52:33;;;;;;;27.20;4.68;;;;;;;;;;5103779;28;20459;-70
2022/12/29 08:54:59;;;;;;;34.33;4.82;;;;;;;;;;5085412;28;20118;-70
2022/12/29 08:57:25;;;;;;;27.20;4.30;;;;;;;;;;5097324;28;20047;-70
2022/12/29 08:59:52;;;;;;;26.02;5.30;;;;;;;;;;5084134;28;20049;-70
2022/12/29 09:02:18;;;;;;;27.83;4.82;;;;;;;;;;5084020;28;20491;-70
2022/12/29 09:04:44;;;;;;;27.95;5.15;;;;;;;;;;5102903;28;20036;-69
2022/12/29 09:07:10;;;;;;;29.52;5.22;;;;;;;;;;5107465;28;20360;-70
2022/12/29 09:09:36;;;;;;;27.52;5.70;;;;;;;;;;5106867;28;20094;-70
2022/12/29 09:12:03;;;;;;;26.65;4.78;;;;;;;;;;5104927;28;20499;-67
2022/12/29 09:14:29;;;;;;;41.78;6.50;;;;;;;;;;5100469;28;20411;-68
2022/12/29 09:19:40;;;;;;;32.53;5.57;;;;;;;;;;5103068;28;20394;-68
2022/12/29 09:22:06;;;;;;;33.13;5.50;;;;;;;;;;5105518;28;20041;-68
2022/12/29 09:24:32;;;;;;;36.83;5.90;;;;;;;;;;5106158;28;20110;-67
2022/12/29 09:26:59;;;;;;;35.50;5.40;;;;;;;;;;5106224;28;20047;-66
2022/12/29 09:29:25;;;;;;;34.60;4.90;;;;;;;;;;5102172;28;20042;-68
2022/12/29 09:31:51;;;;;;;38.15;4.72;;;;;;;;;;5105213;28;20089;-67
2022/12/29 09:34:17;;;;;;;37.60;5.22;;;;;;;;;;5103597;28;20391;-66
2022/12/29 09:36:43;;;;;;;44.90;5.57;;;;;;;;;;5103341;28;20032;-67
2022/12/29 09:39:09;;;;;;;26.92;3.97;;;;;;;;;;5098174;28;20367;-66
2022/12/29 09:41:39;;;;;;;32.22;4.93;;;;;;;;;;5082099;28;20369;-66
2022/12/29 09:44:12;;;;;;;25.35;4.40;;;;;;;;;;5082259;28;20056;-66
2022/12/29 09:46:40;;;;;;;32.90;4.72;;;;;;;;;;5080983;28;20192;-67
2022/12/29 09:49:15;;;;;;;22.77;3.78;;;;;;;;;;5078638;28;20097;-66
2022/12/29 09:51:43;;;;;;;25.15;4.15;;;;;;;;;;5081478;28;20052;-66
2022/12/29 09:54:21;;;;;;;20.60;3.78;;;;;;;;;;5080665;28;20047;-67
2022/12/29 09:56:48;;;;;;;29.88;5.32;;;;;;;;;;5081085;28;20048;-67
2022/12/29 09:59:16;;;;;;;30.27;3.70;;;;;;;;;;5081858;28;20044;-67
2022/12/29 10:01:47;;;;;;;18.55;3.45;;;;;;;;;;5080838;28;20467;-67
2022/12/29 10:04:13;;;;;;;30.58;4.93;;;;;;;;;;5078559;28;20055;-67
2022/12/29 10:06:43;;;;;;;25.55;3.85;;;;;;;;;;5078998;28;20459;-67
2022/12/29 10:09:15;;;;;;;34.55;6.78;;;;;;;;;;5083200;28;20040;-67
2022/12/29 10:11:55;;;;;;;28.85;4.20;;;;;;;;;;5078598;28;20477;-67
2022/12/29 10:14:33;;;;;;;22.92;4.07;;;;;;;;;;5082179;28;20055;-67
2022/12/29 10:17:09;;;;;;;27.98;4.43;;;;;;;;;;5082646;28;20157;-67
2022/12/29 10:19:43;;;;;;;32.75;5.97;;;;;;;;;;5083786;28;20048;-67
2022/12/29 10:22:10;;;;;;;32.08;4.80;;;;;;;;;;5087191;28;20055;-68
2022/12/29 10:24:38;;;;;;;31.77;5.15;;;;;;;;;;5084625;28;20044;-68
2022/12/29 10:27:06;;;;;;;35.40;5.22;;;;;;;;;;5086138;28;20040;-68
2022/12/29 10:29:35;;;;;;;34.75;4.95;;;;;;;;;;5082886;28;20116;-66
2022/12/29 10:32:04;;;;;;;30.52;5.32;;;;;;;;;;5078832;28;20032;-67
2022/12/29 10:34:36;;;;;;;41.00;4.85;;;;;;;;;;5079497;28;20576;-67
2022/12/29 10:37:04;;;;;;;37.97;6.28;;;;;;;;;;5085604;28;20068;-67
2022/12/29 10:39:34;;;;;;;38.05;5.18;;;;;;;;;;5085887;28;20039;-67
2022/12/29 10:42:05;;;;;;;30.33;6.13;;;;;;;;;;5084414;28;20093;-67
2022/12/29 10:44:33;;;;;;;41.20;5.93;;;;;;;;;;5080938;28;20151;-67
2022/12/29 10:47:00;;;;;;;35.65;5.80;;;;;;;;;;5083858;28;20552;-67
2022/12/29 10:49:29;;;;;;;32.53;5.50;;;;;;;;;;5084182;28;20151;-67
2022/12/29 10:51:57;;;;;;;40.17;5.60;;;;;;;;;;5080748;28;20483;-67
2022/12/29 10:54:32;;;;;;;34.10;5.65;;;;;;;;;;5079349;28;20487;-67
2022/12/29 10:57:02;;;;;;;35.08;5.97;;;;;;;;;;5077915;28;20547;-67
2022/12/29 10:59:30;;;;;;;36.38;6.22;;;;;;;;;;5084957;28;20482;-67
2022/12/29 11:02:05;;;;;;;32.40;6.25;;;;;;;;;;5082889;28;20110;-67
2022/12/29 11:04:31;;;;;;;29.25;4.78;;;;;;;;;;5080254;28;20504;-67
2022/12/29 11:06:58;;;;;;;32.58;5.90;;;;;;;;;;5078331;28;20040;-67
2022/12/29 11:09:29;;;;;;;32.17;5.28;;;;;;;;;;5083419;28;20044;-67
2022/12/29 11:11:55;;;;;;;23.88;5.18;;;;;;;;;;5083824;28;20269;-67
2022/12/29 11:14:29;;;;;;;28.25;4.80;;;;;;;;;;5081900;28;20036;-64
2022/12/29 11:16:55;;;;;;;;;;;;;;;;;;5084869;28;20130;-67
2022/12/29 11:19:22;;;;;;;23.60;5.00;;;;;;;;;;5086268;28;20019;-67
2022/12/29 11:21:49;;;;;;;32.38;5.00;;;;;;;;;;5083295;28;20047;-67
2022/12/29 11:24:20;;;;;;;20.95;3.33;;;;;;;;;;5079792;28;20071;-67
2022/12/29 11:26:46;;;;;;;22.33;3.80;;;;;;;;;;5082760;28;20040;-67
2022/12/29 11:29:17;;;;;;;24.67;5.00;;;;;;;;;;5083870;28;20143;-67
2022/12/29 11:31:54;;;;;;;20.13;3.53;;;;;;;;;;5081531;28;20033;-67
2022/12/29 11:34:23;;;;;;;33.22;4.45;;;;;;;;;;5061989;28;20086;-67
2022/12/29 11:36:50;;;;;;;27.05;4.22;;;;;;;;;;5083331;28;20061;-67
2022/12/29 11:39:26;;;;;;;27.30;4.03;;;;;;;;;;5083069;28;21423;-66
2022/12/29 11:41:53;;;;;;;27.48;4.70;;;;;;;;;;5072545;28;20051;-66
2022/12/29 11:44:19;;;;;;;31.73;4.63;;;;;;;;;;5081211;28;20047;-69
2022/12/29 11:46:48;;;;;;;26.70;4.18;;;;;;;;;;5080316;28;20054;-66
2022/12/29 11:49:19;;;;;;;26.02;4.43;;;;;;;;;;5083759;28;20176;-67
2022/12/29 11:51:47;;;;;;;19.73;3.28;;;;;;;;;;5083515;28;20131;-68
2022/12/29 11:54:19;;;;;;;23.35;4.00;;;;;;;;;;5081594;28;20086;-67
2022/12/29 11:56:45;;;;;;;26.63;3.92;;;;;;;;;;5078052;28;20066;-68
2022/12/29 11:59:25;;;;;;;19.15;3.67;;;;;;;;;;5080151;28;20471;-68
2022/12/29 12:01:51;;;;;;;19.90;3.45;;;;;;;;;;5081943;28;20036;-68
2022/12/29 12:04:19;;;;;;;23.38;4.30;;;;;;;;;;5081486;28;20124;-68
2022/12/29 12:06:49;;;;;;;19.35;3.50;;;;;;;;;;5079930;28;20048;-68
2022/12/29 12:09:17;;;;;;;22.73;3.35;;;;;;;;;;5077573;28;20049;-68
2022/12/29 12:11:45;;;;;;;25.88;3.17;;;;;;;;;;5080355;28;20032;-68
2022/12/29 12:14:15;;;;;;;18.00;2.78;;;;;;;;;;5081793;28;20067;-68
2022/12/29 12:16:43;;;;;;;14.10;2.72;;;;;;;;;;5080361;28;20121;-68
2022/12/29 12:19:14;;;;;;;17.58;2.30;;;;;;;;;;5078530;28;20065;-82
2022/12/29 12:21:42;;;;;;;15.57;3.33;;;;;;;;;;5084365;28;20037;-67
2022/12/29 12:24:21;;;;;;;15.95;2.55;;;;;;;;;;5080354;28;20549;-67
2022/12/29 12:26:51;;;;;;;15.85;2.88;;;;;;;;;;5085012;28;20138;-67
2022/12/29 12:29:21;;;;;;;12.65;2.30;;;;;;;;;;5086474;28;20083;-67
2022/12/29 12:31:50;;;;;;;11.98;2.22;;;;;;;;;;5082000;28;20344;-67
2022/12/29 12:34:31;;;;;;;14.73;1.98;;;;;;;;;;5083876;28;20082;-67
2022/12/29 12:37:12;;;;;;;16.50;3.03;;;;;;;;;;5071083;28;20050;-67
2022/12/29 12:39:53;;;;;;;15.82;2.55;;;;;;;;;;5083142;28;20074;-67
2022/12/29 12:42:30;;;;;;;16.35;2.42;;;;;;;;;;5083846;28;20480;-80
2022/12/29 12:45:13;;;;;;;21.80;3.00;;;;;;;;;;5081530;28;20083;-67
2022/12/29 12:47:45;;;;;;;16.02;2.47;;;;;;;;;;5104228;28;20123;-65
2022/12/29 12:50:14;;;;;;;21.33;2.95;;;;;;;;;;5106104;28;20088;-65
2022/12/29 12:53:00;;;;;;;16.15;3.20;;;;;;;;;;5101051;28;20028;-66
2022/12/29 12:55:32;;;;;;;9.05;2.00;;;;;;;;;;5101990;28;20039;-66
2022/12/29 12:58:05;;;;;;;10.82;2.05;;;;;;;;;;5106677;28;20128;-66
2022/12/29 13:00:39;;;;;;;14.15;2.58;;;;;;;;;;5102110;28;20394;-66
2022/12/29 13:03:13;;;;;;;16.55;3.25;;;;;;;;;;5081678;28;20470;-66
2022/12/29 13:05:44;;;;;;;11.95;2.35;;;;;;;;;;5081685;28;20039;-65
2022/12/29 13:08:24;;;;;;;13.77;3.35;;;;;;;;;;5103215;28;20084;-66
2022/12/29 13:11:05;;;;;;;22.20;2.65;;;;;;;;;;5101851;28;20406;-66
2022/12/29 13:13:48;;;;;;;9.63;3.63;;;;;;;;;;5105403;28;20036;-66
2022/12/29 13:16:35;;;;;;;15.07;2.67;;;;;;;;;;5106244;28;20043;-66
2022/12/29 13:19:07;;;;;;;13.23;1.83;;;;;;;;;;5105513;28;20040;-67
2022/12/29 13:21:46;;;;;;;18.23;2.60;;;;;;;;;;5087789;28;20043;-66
2022/12/29 13:24:30;;;;;;;17.98;3.08;;;;;;;;;;5103543;28;20170;-66
2022/12/29 13:27:04;;;;;;;20.83;3.83;;;;;;;;;;5077653;28;20079;-66
2022/12/29 13:29:50;;;;;;;12.15;2.25;;;;;;;;;;5105947;28;20111;-66
2022/12/29 13:32:24;;;;;;;16.13;2.75;;;;;;;;;;5104552;28;20040;-66
2022/12/29 13:34:57;;;;;;;11.10;1.88;;;;;;;;;;5087515;28;20055;-66
2022/12/29 13:37:26;;;;;;;10.15;2.70;;;;;;;;;;5090130;28;20035;-66
2022/12/29 13:39:55;;;;;;;13.02;2.65;;;;;;;;;;5106894;28;20387;-66
2022/12/29 13:42:21;;;;;;;11.60;2.35;;;;;;;;;;5103148;28;20036;-65
2022/12/29 13:44:49;;;;;;;13.98;2.10;;;;;;;;;;5105664;28;20092;-66
2022/12/29 13:47:22;;;;;;;13.02;2.10;;;;;;;;;;5084623;28;20040;-66
2022/12/29 13:49:49;;;;;;;17.98;3.05;;;;;;;;;;5103852;28;20142;-66
2022/12/29 13:52:21;;;;;;;20.55;3.17;;;;;;;;;;5105381;28;20127;-66
2022/12/29 13:54:57;;;;;;;30.67;4.63;;;;;;;;;;5087222;28;20082;-66
2022/12/29 13:57:24;;;;;;;19.02;3.40;;;;;;;;;;5107155;28;20036;-66
2022/12/29 14:00:05;;;;;;;14.05;3.10;;;;;;;;;;5087931;28;20089;-66
2022/12/29 14:02:38;;;;;;;17.20;2.78;;;;;;;;;;5098348;28;20100;-66
2022/12/29 14:05:06;;;;;;;12.80;2.35;;;;;;;;;;5103963;28;20062;-66
2022/12/29 14:07:37;;;;;;;13.65;2.53;;;;;;;;;;5087006;28;20118;-66
2022/12/29 14:10:04;;;;;;;15.07;3.72;;;;;;;;;;5097702;28;20040;-66
2022/12/29 14:12:34;;;;;;;15.75;2.88;;;;;;;;;;5069130;28;20399;-65
2022/12/29 14:15:15;;;;;;;13.02;2.42;;;;;;;;;;5057424;28;20119;-66
2022/12/29 14:17:42;;;;;;;15.02;2.63;;;;;;;;;;5097878;28;20043;-66
2022/12/29 14:20:22;;;;;;;15.18;2.38;;;;;;;;;;5080181;28;20498;-67
2022/12/29 14:22:56;;;;;;;14.52;2.83;;;;;;;;;;5078681;28;20582;-67
2022/12/29 14:25:41;;;;;;;19.00;2.88;;;;;;;;;;5081269;28;20040;-67
2022/12/29 14:28:23;;;;;;;17.55;2.72;;;;;;;;;;5084775;28;20116;-67
2022/12/29 14:30:51;;;;;;;17.92;2.78;;;;;;;;;;5102208;28;20141;-67
2022/12/29 14:33:18;;;;;;;21.65;3.78;;;;;;;;;;5100420;28;20054;-66
2022/12/29 14:35:49;;;;;;;12.70;2.22;;;;;;;;;;5104457;28;20564;-67
2022/12/29 14:38:16;;;;;;;17.50;2.60;;;;;;;;;;5101826;28;20040;-67
2022/12/29 14:40:42;;;;;;;12.27;2.42;;;;;;;;;;5099090;28;20080;-67
2022/12/29 14:43:13;;;;;;;21.85;3.17;;;;;;;;;;5103490;28;20063;-67
2022/12/29 14:45:41;;;;;;;16.58;2.60;;;;;;;;;;5086727;28;20052;-67
2022/12/29 14:48:26;;;;;;;12.68;2.70;;;;;;;;;;5084869;28;20100;-67
2022/12/29 14:50:52;;;;;;;19.27;3.42;;;;;;;;;;5083325;28;20051;-67
2022/12/29 14:53:44;;;;;;;21.75;3.00;;;;;;;;;;5106357;28;20040;-66
2022/12/29 14:56:11;;;;;;;9.18;2.08;;;;;;;;;;5106841;28;20066;-66
2022/12/29 14:58:47;;;;;;;16.98;3.58;;;;;;;;;;5103413;28;20135;-66
2022/12/29 15:01:23;;;;;;;21.75;3.45;;;;;;;;;;5106621;28;20043;-66
2022/12/29 15:03:50;;;;;;;16.38;2.70;;;;;;;;;;5101582;28;20048;-66
2022/12/29 15:06:18;;;;;;;16.67;2.63;;;;;;;;;;5108039;28;20046;-66
2022/12/29 15:08:50;;;;;;;16.02;2.50;;;;;;;;;;5085339;28;20047;-66
2022/12/29 15:11:19;;;;;;;20.83;3.47;;;;;;;;;;5104869;28;20043;-67
2022/12/29 15:13:45;;;;;;;23.60;3.63;;;;;;;;;;5104022;28;20052;-66
2022/12/29 15:16:21;;;;;;;20.38;3.33;;;;;;;;;;5088331;28;20149;-66
2022/12/29 15:18:47;;;;;;;17.98;3.40;;;;;;;;;;5098902;28;20055;-66